sensor_id;sensor_type;location;lat;lon;timestamp;P1;durP1;ratioP1;P2;durP2;ratioP2
25752;SDS011;13600;50.816;4.416;2023-06-10T00:01:58;13.40;;;7.32;;
25752;SDS011;13600;50.816;4.416;2023-06-10T00:04:25;12.68;;;7.15;;
25752;SDS011;13600;50.816;4.416;2023-06-10T00:06:51;11.55;;;7.85;;
25752;SDS011;13600;50.816;4.416;2023-06-10T00:09:18;10.38;;;7.40;;
25752;SDS011;13600;50.816;4.416;2023-06-10T00:11:46;9.70;;;7.22;;
25752;SDS011;13600;50.816;4.416;2023-06-10T00:14:13;10.05;;;7.10;;
25752;SDS011;13600;50.816;4.416;2023-06-10T00:16:39;9.57;;;7.00;;
25752;SDS011;13600;50.816;4.416;2023-06-10T00:19:04;9.13;;;7.05;;
25752;SDS011;13600;50.816;4.416;2023-06-10T00:21:31;11.98;;;7.40;;
25752;SDS011;13600;50.816;4.416;2023-06-10T00:24:05;11.20;;;8.02;;
25752;SDS011;13600;50.816;4.416;2023-06-10T00:26:32;12.43;;;7.70;;
25752;SDS011;13600;50.816;4.416;2023-06-10T00:28:58;9.73;;;7.30;;
25752;SDS011;13600;50.816;4.416;2023-06-10T00:31:24;10.55;;;7.70;;
25752;SDS011;13600;50.816;4.416;2023-06-10T00:33:51;14.18;;;7.55;;
25752;SDS011;13600;50.816;4.416;2023-06-10T00:36:17;11.05;;;7.63;;
25752;SDS011;13600;50.816;4.416;2023-06-10T00:38:43;9.27;;;7.60;;
25752;SDS011;13600;50.816;4.416;2023-06-10T00:41:08;11.90;;;7.68;;
25752;SDS011;13600;50.816;4.416;2023-06-10T00:43:34;14.77;;;7.50;;
25752;SDS011;13600;50.816;4.416;2023-06-10T00:46:00;12.65;;;8.10;;
25752;SDS011;13600;50.816;4.416;2023-06-10T00:48:26;13.00;;;7.57;;
25752;SDS011;13600;50.816;4.416;2023-06-10T00:50:53;10.35;;;7.78;;
25752;SDS011;13600;50.816;4.416;2023-06-10T00:53:19;10.38;;;7.90;;
25752;SDS011;13600;50.816;4.416;2023-06-10T00:55:45;11.65;;;7.82;;
25752;SDS011;13600;50.816;4.416;2023-06-10T00:58:12;11.40;;;7.78;;
25752;SDS011;13600;50.816;4.416;2023-06-10T01:00:38;10.88;;;7.50;;
25752;SDS011;13600;50.816;4.416;2023-06-10T01:03:04;10.82;;;8.02;;
25752;SDS011;13600;50.816;4.416;2023-06-10T01:05:39;10.43;;;7.80;;
25752;SDS011;13600;50.816;4.416;2023-06-10T01:10:38;16.40;;;8.57;;
25752;SDS011;13600;50.816;4.416;2023-06-10T01:13:11;11.85;;;7.93;;
25752;SDS011;13600;50.816;4.416;2023-06-10T01:15:38;13.05;;;7.82;;
25752;SDS011;13600;50.816;4.416;2023-06-10T01:18:05;15.32;;;8.35;;
25752;SDS011;13600;50.816;4.416;2023-06-10T01:20:35;10.73;;;8.40;;
25752;SDS011;13600;50.816;4.416;2023-06-10T01:23:05;13.02;;;8.07;;
25752;SDS011;13600;50.816;4.416;2023-06-10T01:25:31;10.85;;;7.90;;
25752;SDS011;13600;50.816;4.416;2023-06-10T01:28:02;11.23;;;8.07;;
25752;SDS011;13600;50.816;4.416;2023-06-10T01:33:29;10.15;;;8.07;;
25752;SDS011;13600;50.816;4.416;2023-06-10T01:35:57;10.27;;;8.00;;
25752;SDS011;13600;50.816;4.416;2023-06-10T01:38:27;11.68;;;7.97;;
25752;SDS011;13600;50.816;4.416;2023-06-10T01:40:53;13.05;;;8.50;;
25752;SDS011;13600;50.816;4.416;2023-06-10T01:43:21;12.63;;;8.50;;
25752;SDS011;13600;50.816;4.416;2023-06-10T01:45:46;9.88;;;7.72;;
25752;SDS011;13600;50.816;4.416;2023-06-10T01:48:12;10.65;;;8.23;;
25752;SDS011;13600;50.816;4.416;2023-06-10T01:50:38;13.10;;;8.20;;
25752;SDS011;13600;50.816;4.416;2023-06-10T01:53:04;12.15;;;8.07;;
25752;SDS011;13600;50.816;4.416;2023-06-10T01:55:30;10.50;;;9.00;;
25752;SDS011;13600;50.816;4.416;2023-06-10T01:57:57;12.35;;;8.40;;
25752;SDS011;13600;50.816;4.416;2023-06-10T02:00:23;11.45;;;7.90;;
25752;SDS011;13600;50.816;4.416;2023-06-10T02:02:49;10.52;;;8.50;;
25752;SDS011;13600;50.816;4.416;2023-06-10T02:05:15;12.30;;;8.60;;
25752;SDS011;13600;50.816;4.416;2023-06-10T02:07:40;15.13;;;8.70;;
25752;SDS011;13600;50.816;4.416;2023-06-10T02:10:06;11.82;;;8.38;;
25752;SDS011;13600;50.816;4.416;2023-06-10T02:12:32;15.60;;;8.93;;
25752;SDS011;13600;50.816;4.416;2023-06-10T02:14:58;12.63;;;8.85;;
25752;SDS011;13600;50.816;4.416;2023-06-10T02:17:23;11.50;;;8.65;;
25752;SDS011;13600;50.816;4.416;2023-06-10T02:19:49;11.65;;;8.65;;
25752;SDS011;13600;50.816;4.416;2023-06-10T02:22:19;12.88;;;8.85;;
25752;SDS011;13600;50.816;4.416;2023-06-10T02:24:46;12.88;;;9.20;;
25752;SDS011;13600;50.816;4.416;2023-06-10T02:27:12;11.15;;;8.75;;
25752;SDS011;13600;50.816;4.416;2023-06-10T02:29:38;12.20;;;8.80;;
25752;SDS011;13600;50.816;4.416;2023-06-10T02:32:03;11.25;;;8.57;;
25752;SDS011;13600;50.816;4.416;2023-06-10T02:34:30;15.98;;;9.40;;
25752;SDS011;13600;50.816;4.416;2023-06-10T02:36:56;11.02;;;8.85;;
25752;SDS011;13600;50.816;4.416;2023-06-10T02:39:22;13.13;;;9.15;;
25752;SDS011;13600;50.816;4.416;2023-06-10T02:41:47;13.35;;;9.00;;
25752;SDS011;13600;50.816;4.416;2023-06-10T02:44:13;15.52;;;8.57;;
25752;SDS011;13600;50.816;4.416;2023-06-10T02:46:39;13.02;;;9.05;;
25752;SDS011;13600;50.816;4.416;2023-06-10T02:49:04;13.13;;;8.85;;
25752;SDS011;13600;50.816;4.416;2023-06-10T02:51:30;10.27;;;8.98;;
25752;SDS011;13600;50.816;4.416;2023-06-10T02:53:55;17.23;;;8.85;;
25752;SDS011;13600;50.816;4.416;2023-06-10T02:56:21;14.23;;;8.93;;
25752;SDS011;13600;50.816;4.416;2023-06-10T02:58:47;13.55;;;9.13;;
25752;SDS011;13600;50.816;4.416;2023-06-10T03:01:13;12.38;;;9.32;;
25752;SDS011;13600;50.816;4.416;2023-06-10T03:03:39;11.73;;;9.27;;
25752;SDS011;13600;50.816;4.416;2023-06-10T03:06:08;12.02;;;8.93;;
25752;SDS011;13600;50.816;4.416;2023-06-10T03:08:35;10.20;;;8.82;;
25752;SDS011;13600;50.816;4.416;2023-06-10T03:11:02;11.35;;;9.07;;
25752;SDS011;13600;50.816;4.416;2023-06-10T03:13:28;11.95;;;8.82;;
25752;SDS011;13600;50.816;4.416;2023-06-10T03:15:54;15.88;;;9.48;;
25752;SDS011;13600;50.816;4.416;2023-06-10T03:18:20;18.85;;;9.82;;
25752;SDS011;13600;50.816;4.416;2023-06-10T03:20:45;12.00;;;9.82;;
25752;SDS011;13600;50.816;4.416;2023-06-10T03:23:11;16.25;;;9.13;;
25752;SDS011;13600;50.816;4.416;2023-06-10T03:25:36;16.65;;;9.68;;
25752;SDS011;13600;50.816;4.416;2023-06-10T03:28:02;13.70;;;9.20;;
25752;SDS011;13600;50.816;4.416;2023-06-10T03:30:28;10.63;;;9.18;;
25752;SDS011;13600;50.816;4.416;2023-06-10T03:32:54;11.07;;;9.13;;
25752;SDS011;13600;50.816;4.416;2023-06-10T03:35:20;11.70;;;9.30;;
25752;SDS011;13600;50.816;4.416;2023-06-10T03:37:45;11.13;;;8.98;;
25752;SDS011;13600;50.816;4.416;2023-06-10T03:40:11;12.70;;;9.57;;
25752;SDS011;13600;50.816;4.416;2023-06-10T03:42:37;11.82;;;9.88;;
25752;SDS011;13600;50.816;4.416;2023-06-10T03:45:03;14.20;;;9.82;;
25752;SDS011;13600;50.816;4.416;2023-06-10T03:47:36;12.48;;;9.50;;
25752;SDS011;13600;50.816;4.416;2023-06-10T03:50:05;13.77;;;9.32;;
25752;SDS011;13600;50.816;4.416;2023-06-10T03:52:33;11.00;;;9.65;;
25752;SDS011;13600;50.816;4.416;2023-06-10T03:54:59;13.55;;;9.45;;
25752;SDS011;13600;50.816;4.416;2023-06-10T03:57:25;12.05;;;9.70;;
25752;SDS011;13600;50.816;4.416;2023-06-10T03:59:51;12.77;;;9.70;;
25752;SDS011;13600;50.816;4.416;2023-06-10T04:02:16;10.82;;;9.32;;
25752;SDS011;13600;50.816;4.416;2023-06-10T04:04:43;11.57;;;9.23;;
25752;SDS011;13600;50.816;4.416;2023-06-10T04:07:08;12.13;;;9.45;;
25752;SDS011;13600;50.816;4.416;2023-06-10T04:09:34;11.63;;;9.80;;
25752;SDS011;13600;50.816;4.416;2023-06-10T04:12:04;15.63;;;10.40;;
25752;SDS011;13600;50.816;4.416;2023-06-10T04:14:33;12.75;;;9.45;;
25752;SDS011;13600;50.816;4.416;2023-06-10T04:17:01;12.93;;;10.05;;
25752;SDS011;13600;50.816;4.416;2023-06-10T04:19:27;14.77;;;9.90;;
25752;SDS011;13600;50.816;4.416;2023-06-10T04:21:53;14.40;;;9.82;;
25752;SDS011;13600;50.816;4.416;2023-06-10T04:24:19;15.55;;;9.38;;
25752;SDS011;13600;50.816;4.416;2023-06-10T04:26:44;14.07;;;10.20;;
25752;SDS011;13600;50.816;4.416;2023-06-10T04:29:10;12.32;;;9.90;;
25752;SDS011;13600;50.816;4.416;2023-06-10T04:31:36;14.43;;;10.02;;
25752;SDS011;13600;50.816;4.416;2023-06-10T04:34:01;14.10;;;9.50;;
25752;SDS011;13600;50.816;4.416;2023-06-10T04:36:28;12.82;;;10.13;;
25752;SDS011;13600;50.816;4.416;2023-06-10T04:38:55;18.80;;;9.63;;
25752;SDS011;13600;50.816;4.416;2023-06-10T04:41:20;15.07;;;10.27;;
25752;SDS011;13600;50.816;4.416;2023-06-10T04:43:47;17.38;;;10.02;;
25752;SDS011;13600;50.816;4.416;2023-06-10T04:46:13;13.15;;;9.50;;
25752;SDS011;13600;50.816;4.416;2023-06-10T04:48:38;12.57;;;9.70;;
25752;SDS011;13600;50.816;4.416;2023-06-10T04:51:04;15.43;;;9.90;;
25752;SDS011;13600;50.816;4.416;2023-06-10T04:53:30;15.52;;;9.77;;
25752;SDS011;13600;50.816;4.416;2023-06-10T04:55:56;13.65;;;9.82;;
25752;SDS011;13600;50.816;4.416;2023-06-10T04:58:22;13.48;;;9.63;;
25752;SDS011;13600;50.816;4.416;2023-06-10T05:00:48;12.38;;;10.02;;
25752;SDS011;13600;50.816;4.416;2023-06-10T05:03:14;13.68;;;10.27;;
25752;SDS011;13600;50.816;4.416;2023-06-10T05:05:40;16.98;;;9.45;;
25752;SDS011;13600;50.816;4.416;2023-06-10T05:08:05;13.52;;;10.05;;
25752;SDS011;13600;50.816;4.416;2023-06-10T05:10:31;13.73;;;9.82;;
25752;SDS011;13600;50.816;4.416;2023-06-10T05:12:57;14.00;;;9.95;;
25752;SDS011;13600;50.816;4.416;2023-06-10T05:15:23;15.93;;;10.43;;
25752;SDS011;13600;50.816;4.416;2023-06-10T05:17:49;13.15;;;9.90;;
25752;SDS011;13600;50.816;4.416;2023-06-10T05:20:15;17.15;;;10.07;;
25752;SDS011;13600;50.816;4.416;2023-06-10T05:22:41;12.75;;;9.80;;
25752;SDS011;13600;50.816;4.416;2023-06-10T05:25:07;14.95;;;9.93;;
25752;SDS011;13600;50.816;4.416;2023-06-10T05:27:33;13.88;;;10.05;;
25752;SDS011;13600;50.816;4.416;2023-06-10T05:29:58;15.15;;;9.65;;
25752;SDS011;13600;50.816;4.416;2023-06-10T05:32:24;14.50;;;10.27;;
25752;SDS011;13600;50.816;4.416;2023-06-10T05:34:50;15.52;;;10.25;;
25752;SDS011;13600;50.816;4.416;2023-06-10T05:37:16;15.77;;;9.98;;
25752;SDS011;13600;50.816;4.416;2023-06-10T05:39:42;12.45;;;9.73;;
25752;SDS011;13600;50.816;4.416;2023-06-10T05:42:08;13.55;;;9.48;;
25752;SDS011;13600;50.816;4.416;2023-06-10T05:44:34;12.98;;;9.27;;
25752;SDS011;13600;50.816;4.416;2023-06-10T05:47:00;15.90;;;9.85;;
25752;SDS011;13600;50.816;4.416;2023-06-10T05:49:26;13.93;;;9.48;;
25752;SDS011;13600;50.816;4.416;2023-06-10T05:51:52;16.38;;;9.48;;
25752;SDS011;13600;50.816;4.416;2023-06-10T05:54:18;11.60;;;9.80;;
25752;SDS011;13600;50.816;4.416;2023-06-10T05:56:44;12.77;;;9.95;;
25752;SDS011;13600;50.816;4.416;2023-06-10T05:59:10;14.45;;;9.68;;
25752;SDS011;13600;50.816;4.416;2023-06-10T06:01:35;15.43;;;10.15;;
25752;SDS011;13600;50.816;4.416;2023-06-10T06:04:01;14.85;;;9.85;;
25752;SDS011;13600;50.816;4.416;2023-06-10T06:06:27;14.35;;;9.80;;
25752;SDS011;13600;50.816;4.416;2023-06-10T06:08:52;12.40;;;9.63;;
25752;SDS011;13600;50.816;4.416;2023-06-10T06:11:19;11.55;;;9.40;;
25752;SDS011;13600;50.816;4.416;2023-06-10T06:13:45;12.45;;;9.73;;
25752;SDS011;13600;50.816;4.416;2023-06-10T06:16:13;13.32;;;9.75;;
25752;SDS011;13600;50.816;4.416;2023-06-10T06:18:40;15.20;;;10.32;;
25752;SDS011;13600;50.816;4.416;2023-06-10T06:21:05;12.05;;;10.18;;
25752;SDS011;13600;50.816;4.416;2023-06-10T06:23:31;10.30;;;8.77;;
25752;SDS011;13600;50.816;4.416;2023-06-10T06:25:56;14.30;;;9.63;;
25752;SDS011;13600;50.816;4.416;2023-06-10T06:28:22;11.57;;;9.05;;
25752;SDS011;13600;50.816;4.416;2023-06-10T06:30:48;12.05;;;9.43;;
25752;SDS011;13600;50.816;4.416;2023-06-10T06:33:13;11.60;;;9.77;;
25752;SDS011;13600;50.816;4.416;2023-06-10T06:35:39;12.48;;;9.27;;
25752;SDS011;13600;50.816;4.416;2023-06-10T06:38:05;13.82;;;9.25;;
25752;SDS011;13600;50.816;4.416;2023-06-10T06:40:30;11.05;;;9.10;;
25752;SDS011;13600;50.816;4.416;2023-06-10T06:42:56;13.23;;;9.75;;
25752;SDS011;13600;50.816;4.416;2023-06-10T06:45:22;11.68;;;9.15;;
25752;SDS011;13600;50.816;4.416;2023-06-10T06:47:48;11.70;;;8.45;;
25752;SDS011;13600;50.816;4.416;2023-06-10T06:50:13;12.23;;;9.10;;
25752;SDS011;13600;50.816;4.416;2023-06-10T06:52:40;13.55;;;9.40;;
25752;SDS011;13600;50.816;4.416;2023-06-10T06:55:06;12.23;;;9.32;;
25752;SDS011;13600;50.816;4.416;2023-06-10T06:57:32;10.35;;;8.40;;
25752;SDS011;13600;50.816;4.416;2023-06-10T06:59:57;13.88;;;8.75;;
25752;SDS011;13600;50.816;4.416;2023-06-10T07:02:23;11.70;;;9.27;;
25752;SDS011;13600;50.816;4.416;2023-06-10T07:04:49;13.85;;;9.70;;
25752;SDS011;13600;50.816;4.416;2023-06-10T07:07:15;12.23;;;8.23;;
25752;SDS011;13600;50.816;4.416;2023-06-10T07:09:41;10.63;;;8.73;;
25752;SDS011;13600;50.816;4.416;2023-06-10T07:12:07;14.07;;;8.90;;
25752;SDS011;13600;50.816;4.416;2023-06-10T07:14:33;11.15;;;8.30;;
25752;SDS011;13600;50.816;4.416;2023-06-10T07:16:59;13.48;;;8.85;;
25752;SDS011;13600;50.816;4.416;2023-06-10T07:19:25;10.98;;;8.00;;
25752;SDS011;13600;50.816;4.416;2023-06-10T07:21:50;11.68;;;8.20;;
25752;SDS011;13600;50.816;4.416;2023-06-10T07:24:16;11.00;;;8.15;;
25752;SDS011;13600;50.816;4.416;2023-06-10T07:26:42;13.65;;;8.40;;
25752;SDS011;13600;50.816;4.416;2023-06-10T07:29:07;10.52;;;8.60;;
25752;SDS011;13600;50.816;4.416;2023-06-10T07:31:33;9.98;;;7.82;;
25752;SDS011;13600;50.816;4.416;2023-06-10T07:33:59;9.70;;;7.22;;
25752;SDS011;13600;50.816;4.416;2023-06-10T07:36:25;13.43;;;7.78;;
25752;SDS011;13600;50.816;4.416;2023-06-10T07:38:52;11.82;;;7.43;;
25752;SDS011;13600;50.816;4.416;2023-06-10T07:41:19;10.25;;;7.18;;
25752;SDS011;13600;50.816;4.416;2023-06-10T07:43:45;9.35;;;6.85;;
25752;SDS011;13600;50.816;4.416;2023-06-10T07:46:11;9.35;;;6.82;;
25752;SDS011;13600;50.816;4.416;2023-06-10T07:48:36;13.13;;;6.75;;
25752;SDS011;13600;50.816;4.416;2023-06-10T07:51:02;9.93;;;6.93;;
25752;SDS011;13600;50.816;4.416;2023-06-10T07:53:28;9.65;;;6.72;;
25752;SDS011;13600;50.816;4.416;2023-06-10T07:55:53;14.70;;;6.65;;
25752;SDS011;13600;50.816;4.416;2023-06-10T07:58:19;8.63;;;6.50;;
25752;SDS011;13600;50.816;4.416;2023-06-10T08:00:46;8.52;;;6.30;;
25752;SDS011;13600;50.816;4.416;2023-06-10T08:03:11;7.85;;;6.05;;
25752;SDS011;13600;50.816;4.416;2023-06-10T08:05:38;8.82;;;6.00;;
25752;SDS011;13600;50.816;4.416;2023-06-10T08:08:04;8.18;;;5.97;;
25752;SDS011;13600;50.816;4.416;2023-06-10T08:10:30;8.82;;;6.00;;
25752;SDS011;13600;50.816;4.416;2023-06-10T08:12:56;9.18;;;6.07;;
25752;SDS011;13600;50.816;4.416;2023-06-10T08:15:21;12.80;;;6.25;;
25752;SDS011;13600;50.816;4.416;2023-06-10T08:17:47;9.98;;;5.95;;
25752;SDS011;13600;50.816;4.416;2023-06-10T08:20:13;6.30;;;5.55;;
25752;SDS011;13600;50.816;4.416;2023-06-10T08:22:38;6.30;;;5.70;;
25752;SDS011;13600;50.816;4.416;2023-06-10T08:25:04;9.70;;;6.00;;
25752;SDS011;13600;50.816;4.416;2023-06-10T08:27:30;9.05;;;6.03;;
25752;SDS011;13600;50.816;4.416;2023-06-10T08:29:56;7.60;;;5.57;;
25752;SDS011;13600;50.816;4.416;2023-06-10T08:32:21;12.48;;;7.55;;
25752;SDS011;13600;50.816;4.416;2023-06-10T08:34:48;8.02;;;6.50;;
25752;SDS011;13600;50.816;4.416;2023-06-10T08:37:14;9.82;;;7.53;;
25752;SDS011;13600;50.816;4.416;2023-06-10T08:39:40;6.65;;;5.63;;
25752;SDS011;13600;50.816;4.416;2023-06-10T08:42:17;6.63;;;5.38;;
25752;SDS011;13600;50.816;4.416;2023-06-10T08:44:53;10.10;;;5.35;;
25752;SDS011;13600;50.816;4.416;2023-06-10T08:47:24;8.85;;;5.40;;
25752;SDS011;13600;50.816;4.416;2023-06-10T08:49:50;7.95;;;5.25;;
25752;SDS011;13600;50.816;4.416;2023-06-10T08:52:18;7.13;;;5.07;;
25752;SDS011;13600;50.816;4.416;2023-06-10T08:54:49;7.57;;;4.93;;
25752;SDS011;13600;50.816;4.416;2023-06-10T08:57:19;7.80;;;5.00;;
25752;SDS011;13600;50.816;4.416;2023-06-10T08:59:46;10.02;;;5.00;;
25752;SDS011;13600;50.816;4.416;2023-06-10T09:02:13;13.52;;;5.10;;
25752;SDS011;13600;50.816;4.416;2023-06-10T09:04:41;7.55;;;5.10;;
25752;SDS011;13600;50.816;4.416;2023-06-10T09:07:08;12.43;;;5.43;;
25752;SDS011;13600;50.816;4.416;2023-06-10T09:09:35;9.95;;;5.20;;
25752;SDS011;13600;50.816;4.416;2023-06-10T09:12:01;7.85;;;5.30;;
25752;SDS011;13600;50.816;4.416;2023-06-10T09:14:28;8.98;;;5.13;;
25752;SDS011;13600;50.816;4.416;2023-06-10T09:16:53;6.53;;;4.78;;
25752;SDS011;13600;50.816;4.416;2023-06-10T09:19:22;10.95;;;5.20;;
25752;SDS011;13600;50.816;4.416;2023-06-10T09:21:49;6.35;;;5.05;;
25752;SDS011;13600;50.816;4.416;2023-06-10T09:24:15;8.45;;;4.70;;
25752;SDS011;13600;50.816;4.416;2023-06-10T09:26:41;8.55;;;4.90;;
25752;SDS011;13600;50.816;4.416;2023-06-10T09:29:07;5.55;;;4.68;;
25752;SDS011;13600;50.816;4.416;2023-06-10T09:31:34;7.63;;;5.05;;
25752;SDS011;13600;50.816;4.416;2023-06-10T09:34:11;13.50;;;4.78;;
25752;SDS011;13600;50.816;4.416;2023-06-10T09:36:38;8.73;;;5.00;;
25752;SDS011;13600;50.816;4.416;2023-06-10T09:39:06;8.27;;;4.60;;
25752;SDS011;13600;50.816;4.416;2023-06-10T09:41:42;5.53;;;4.20;;
25752;SDS011;13600;50.816;4.416;2023-06-10T09:44:14;7.90;;;4.47;;
25752;SDS011;13600;50.816;4.416;2023-06-10T09:46:44;8.07;;;4.90;;
25752;SDS011;13600;50.816;4.416;2023-06-10T09:49:11;6.22;;;4.22;;
25752;SDS011;13600;50.816;4.416;2023-06-10T09:51:37;5.38;;;4.13;;
25752;SDS011;13600;50.816;4.416;2023-06-10T09:54:03;8.52;;;4.50;;
25752;SDS011;13600;50.816;4.416;2023-06-10T09:56:32;7.57;;;4.45;;
25752;SDS011;13600;50.816;4.416;2023-06-10T09:59:02;13.07;;;4.70;;
25752;SDS011;13600;50.816;4.416;2023-06-10T10:01:31;7.80;;;5.53;;
25752;SDS011;13600;50.816;4.416;2023-06-10T10:03:58;8.85;;;5.82;;
25752;SDS011;13600;50.816;4.416;2023-06-10T10:06:24;6.88;;;4.88;;
25752;SDS011;13600;50.816;4.416;2023-06-10T10:08:51;9.57;;;4.32;;
25752;SDS011;13600;50.816;4.416;2023-06-10T10:11:17;7.70;;;4.30;;
25752;SDS011;13600;50.816;4.416;2023-06-10T10:13:46;9.18;;;4.07;;
25752;SDS011;13600;50.816;4.416;2023-06-10T10:16:17;8.65;;;4.20;;
25752;SDS011;13600;50.816;4.416;2023-06-10T10:18:53;6.70;;;4.30;;
25752;SDS011;13600;50.816;4.416;2023-06-10T10:21:23;5.40;;;4.15;;
25752;SDS011;13600;50.816;4.416;2023-06-10T10:24:12;6.63;;;4.55;;
25752;SDS011;13600;50.816;4.416;2023-06-10T10:26:41;5.13;;;4.10;;
25752;SDS011;13600;50.816;4.416;2023-06-10T10:31:39;9.15;;;4.25;;
25752;SDS011;13600;50.816;4.416;2023-06-10T10:34:12;6.38;;;4.00;;
25752;SDS011;13600;50.816;4.416;2023-06-10T10:36:40;7.35;;;4.05;;
25752;SDS011;13600;50.816;4.416;2023-06-10T10:39:06;6.53;;;4.13;;
25752;SDS011;13600;50.816;4.416;2023-06-10T10:41:33;6.20;;;4.25;;
25752;SDS011;13600;50.816;4.416;2023-06-10T10:44:01;6.25;;;4.20;;
25752;SDS011;13600;50.816;4.416;2023-06-10T10:46:27;5.53;;;4.05;;
25752;SDS011;13600;50.816;4.416;2023-06-10T10:48:53;4.95;;;4.03;;
25752;SDS011;13600;50.816;4.416;2023-06-10T10:51:22;5.65;;;4.25;;
25752;SDS011;13600;50.816;4.416;2023-06-10T10:56:37;5.95;;;3.70;;
25752;SDS011;13600;50.816;4.416;2023-06-10T10:59:03;6.82;;;3.90;;
25752;SDS011;13600;50.816;4.416;2023-06-10T11:01:39;6.82;;;3.80;;
25752;SDS011;13600;50.816;4.416;2023-06-10T11:04:07;5.75;;;3.55;;
25752;SDS011;13600;50.816;4.416;2023-06-10T11:06:34;7.47;;;3.85;;
25752;SDS011;13600;50.816;4.416;2023-06-10T11:09:00;4.47;;;3.60;;
25752;SDS011;13600;50.816;4.416;2023-06-10T11:11:26;6.15;;;3.67;;
25752;SDS011;13600;50.816;4.416;2023-06-10T11:16:29;5.78;;;4.03;;
25752;SDS011;13600;50.816;4.416;2023-06-10T11:18:55;5.63;;;3.85;;
25752;SDS011;13600;50.816;4.416;2023-06-10T11:21:23;4.40;;;3.80;;
25752;SDS011;13600;50.816;4.416;2023-06-10T11:23:50;8.35;;;3.70;;
25752;SDS011;13600;50.816;4.416;2023-06-10T11:26:17;7.47;;;4.15;;
25752;SDS011;13600;50.816;4.416;2023-06-10T11:31:24;4.78;;;3.80;;
25752;SDS011;13600;50.816;4.416;2023-06-10T11:33:57;5.93;;;4.07;;
25752;SDS011;13600;50.816;4.416;2023-06-10T11:36:25;5.15;;;3.88;;
25752;SDS011;13600;50.816;4.416;2023-06-10T11:38:58;5.82;;;3.63;;
25752;SDS011;13600;50.816;4.416;2023-06-10T11:41:25;4.72;;;4.30;;
25752;SDS011;13600;50.816;4.416;2023-06-10T11:43:52;10.93;;;7.28;;
25752;SDS011;13600;50.816;4.416;2023-06-10T11:46:20;6.03;;;3.97;;
25752;SDS011;13600;50.816;4.416;2023-06-10T11:48:49;5.80;;;3.80;;
25752;SDS011;13600;50.816;4.416;2023-06-10T11:51:19;8.80;;;3.88;;
25752;SDS011;13600;50.816;4.416;2023-06-10T11:53:46;7.13;;;4.05;;
25752;SDS011;13600;50.816;4.416;2023-06-10T11:56:12;4.82;;;3.60;;
25752;SDS011;13600;50.816;4.416;2023-06-10T11:58:40;7.30;;;3.58;;
25752;SDS011;13600;50.816;4.416;2023-06-10T12:01:09;5.95;;;3.90;;
25752;SDS011;13600;50.816;4.416;2023-06-10T12:03:36;4.60;;;4.20;;
25752;SDS011;13600;50.816;4.416;2023-06-10T12:06:06;8.77;;;4.40;;
25752;SDS011;13600;50.816;4.416;2023-06-10T12:08:32;5.00;;;3.88;;
25752;SDS011;13600;50.816;4.416;2023-06-10T12:10:58;6.70;;;4.03;;
25752;SDS011;13600;50.816;4.416;2023-06-10T12:13:26;5.65;;;3.65;;
25752;SDS011;13600;50.816;4.416;2023-06-10T12:15:52;8.02;;;3.70;;
25752;SDS011;13600;50.816;4.416;2023-06-10T12:18:22;6.20;;;3.90;;
25752;SDS011;13600;50.816;4.416;2023-06-10T12:20:48;6.32;;;3.70;;
25752;SDS011;13600;50.816;4.416;2023-06-10T12:23:15;5.45;;;3.90;;
25752;SDS011;13600;50.816;4.416;2023-06-10T12:25:52;5.32;;;4.18;;
25752;SDS011;13600;50.816;4.416;2023-06-10T12:28:21;7.72;;;4.07;;
25752;SDS011;13600;50.816;4.416;2023-06-10T12:30:48;5.47;;;3.90;;
25752;SDS011;13600;50.816;4.416;2023-06-10T12:33:20;7.15;;;3.80;;
25752;SDS011;13600;50.816;4.416;2023-06-10T12:35:47;8.63;;;4.13;;
25752;SDS011;13600;50.816;4.416;2023-06-10T12:38:14;5.95;;;4.28;;
25752;SDS011;13600;50.816;4.416;2023-06-10T12:40:46;4.57;;;4.00;;
25752;SDS011;13600;50.816;4.416;2023-06-10T12:43:12;5.13;;;4.18;;
25752;SDS011;13600;50.816;4.416;2023-06-10T12:45:45;8.10;;;3.97;;
25752;SDS011;13600;50.816;4.416;2023-06-10T12:48:11;6.60;;;4.07;;
25752;SDS011;13600;50.816;4.416;2023-06-10T12:50:41;7.07;;;4.28;;
25752;SDS011;13600;50.816;4.416;2023-06-10T12:53:07;9.45;;;3.88;;
25752;SDS011;13600;50.816;4.416;2023-06-10T12:55:33;5.25;;;3.75;;
25752;SDS011;13600;50.816;4.416;2023-06-10T12:57:59;7.72;;;4.43;;
25752;SDS011;13600;50.816;4.416;2023-06-10T13:00:26;6.97;;;4.03;;
25752;SDS011;13600;50.816;4.416;2023-06-10T13:02:54;6.07;;;4.35;;
25752;SDS011;13600;50.816;4.416;2023-06-10T13:05:27;5.15;;;4.28;;
25752;SDS011;13600;50.816;4.416;2023-06-10T13:07:53;6.93;;;4.00;;
25752;SDS011;13600;50.816;4.416;2023-06-10T13:10:20;8.75;;;4.38;;
25752;SDS011;13600;50.816;4.416;2023-06-10T13:12:47;12.10;;;4.88;;
25752;SDS011;13600;50.816;4.416;2023-06-10T13:15:12;6.68;;;4.30;;
25752;SDS011;13600;50.816;4.416;2023-06-10T13:17:39;5.75;;;4.22;;
25752;SDS011;13600;50.816;4.416;2023-06-10T13:20:05;7.20;;;4.25;;
25752;SDS011;13600;50.816;4.416;2023-06-10T13:22:32;8.65;;;4.32;;
25752;SDS011;13600;50.816;4.416;2023-06-10T13:24:59;6.70;;;4.38;;
25752;SDS011;13600;50.816;4.416;2023-06-10T13:27:29;9.00;;;4.20;;
25752;SDS011;13600;50.816;4.416;2023-06-10T13:29:54;8.30;;;3.95;;
25752;SDS011;13600;50.816;4.416;2023-06-10T13:32:20;9.77;;;4.43;;
25752;SDS011;13600;50.816;4.416;2023-06-10T13:34:46;8.18;;;4.35;;
25752;SDS011;13600;50.816;4.416;2023-06-10T13:37:12;5.38;;;4.07;;
25752;SDS011;13600;50.816;4.416;2023-06-10T13:39:38;7.20;;;4.80;;
25752;SDS011;13600;50.816;4.416;2023-06-10T13:42:04;6.45;;;4.38;;
25752;SDS011;13600;50.816;4.416;2023-06-10T13:44:32;9.82;;;4.50;;
25752;SDS011;13600;50.816;4.416;2023-06-10T13:47:01;6.28;;;4.40;;
25752;SDS011;13600;50.816;4.416;2023-06-10T13:49:30;7.07;;;4.30;;
25752;SDS011;13600;50.816;4.416;2023-06-10T13:51:56;7.70;;;4.18;;
25752;SDS011;13600;50.816;4.416;2023-06-10T13:54:22;6.90;;;4.57;;
25752;SDS011;13600;50.816;4.416;2023-06-10T13:56:48;7.65;;;4.55;;
25752;SDS011;13600;50.816;4.416;2023-06-10T13:59:13;6.20;;;4.15;;
25752;SDS011;13600;50.816;4.416;2023-06-10T14:01:39;6.55;;;4.15;;
25752;SDS011;13600;50.816;4.416;2023-06-10T14:04:05;8.88;;;4.22;;
25752;SDS011;13600;50.816;4.416;2023-06-10T14:06:32;8.95;;;4.47;;
25752;SDS011;13600;50.816;4.416;2023-06-10T14:08:59;6.18;;;3.85;;
25752;SDS011;13600;50.816;4.416;2023-06-10T14:11:25;10.45;;;4.25;;
25752;SDS011;13600;50.816;4.416;2023-06-10T14:13:50;13.32;;;4.55;;
25752;SDS011;13600;50.816;4.416;2023-06-10T14:16:16;8.38;;;4.70;;
25752;SDS011;13600;50.816;4.416;2023-06-10T14:18:42;5.43;;;4.20;;
25752;SDS011;13600;50.816;4.416;2023-06-10T14:21:08;7.38;;;4.40;;
25752;SDS011;13600;50.816;4.416;2023-06-10T14:23:33;5.65;;;4.15;;
25752;SDS011;13600;50.816;4.416;2023-06-10T14:25:59;7.85;;;4.28;;
25752;SDS011;13600;50.816;4.416;2023-06-10T14:28:25;9.25;;;4.22;;
25752;SDS011;13600;50.816;4.416;2023-06-10T14:30:52;9.25;;;4.63;;
25752;SDS011;13600;50.816;4.416;2023-06-10T14:33:18;7.78;;;4.53;;
25752;SDS011;13600;50.816;4.416;2023-06-10T14:35:44;10.65;;;4.80;;
25752;SDS011;13600;50.816;4.416;2023-06-10T14:38:09;7.97;;;4.20;;
25752;SDS011;13600;50.816;4.416;2023-06-10T14:40:35;9.50;;;4.40;;
25752;SDS011;13600;50.816;4.416;2023-06-10T14:43:01;9.02;;;4.10;;
25752;SDS011;13600;50.816;4.416;2023-06-10T14:45:29;7.22;;;4.40;;
25752;SDS011;13600;50.816;4.416;2023-06-10T14:47:54;9.93;;;4.47;;
25752;SDS011;13600;50.816;4.416;2023-06-10T14:50:20;6.80;;;4.63;;
25752;SDS011;13600;50.816;4.416;2023-06-10T14:52:46;6.95;;;4.25;;
25752;SDS011;13600;50.816;4.416;2023-06-10T14:55:11;5.50;;;4.10;;